sensor_id;sensor_type;location;lat;lon;timestamp;P1;durP1;ratioP1;P2;durP2;ratioP2
75542;SDS011;64129;53.508;10.476;2023-02-28T00:00:29;15.60;;;10.55;;
75542;SDS011;64129;53.508;10.476;2023-02-28T00:02:55;18.23;;;11.30;;
75542;SDS011;64129;53.508;10.476;2023-02-28T00:05:23;19.40;;;11.55;;
75542;SDS011;64129;53.508;10.476;2023-02-28T00:07:50;16.88;;;11.10;;
75542;SDS011;64129;53.508;10.476;2023-02-28T00:10:18;16.90;;;10.25;;
75542;SDS011;64129;53.508;10.476;2023-02-28T00:12:50;18.02;;;10.43;;
75542;SDS011;64129;53.508;10.476;2023-02-28T00:15:17;17.20;;;10.88;;
75542;SDS011;64129;53.508;10.476;2023-02-28T00:17:44;17.58;;;9.77;;
75542;SDS011;64129;53.508;10.476;2023-02-28T00:20:12;15.98;;;9.80;;
75542;SDS011;64129;53.508;10.476;2023-02-28T00:22:40;18.40;;;10.02;;
75542;SDS011;64129;53.508;10.476;2023-02-28T00:25:10;12.93;;;8.98;;
75542;SDS011;64129;53.508;10.476;2023-02-28T00:27:38;13.98;;;8.70;;
75542;SDS011;64129;53.508;10.476;2023-02-28T00:30:06;12.48;;;8.15;;
75542;SDS011;64129;53.508;10.476;2023-02-28T00:32:36;10.65;;;7.00;;
75542;SDS011;64129;53.508;10.476;2023-02-28T00:35:03;10.57;;;6.70;;
75542;SDS011;64129;53.508;10.476;2023-02-28T00:37:30;12.75;;;6.63;;
75542;SDS011;64129;53.508;10.476;2023-02-28T00:39:57;12.82;;;6.90;;
75542;SDS011;64129;53.508;10.476;2023-02-28T00:42:24;13.85;;;7.50;;
75542;SDS011;64129;53.508;10.476;2023-02-28T00:44:50;11.10;;;6.60;;
75542;SDS011;64129;53.508;10.476;2023-02-28T00:47:17;14.05;;;7.03;;
75542;SDS011;64129;53.508;10.476;2023-02-28T00:49:44;13.77;;;8.38;;
75542;SDS011;64129;53.508;10.476;2023-02-28T00:52:10;16.65;;;8.20;;
75542;SDS011;64129;53.508;10.476;2023-02-28T00:54:37;13.43;;;7.95;;
75542;SDS011;64129;53.508;10.476;2023-02-28T00:57:03;14.73;;;8.35;;
75542;SDS011;64129;53.508;10.476;2023-02-28T00:59:30;15.73;;;9.65;;
75542;SDS011;64129;53.508;10.476;2023-02-28T01:01:57;17.58;;;9.65;;
75542;SDS011;64129;53.508;10.476;2023-02-28T01:04:23;15.60;;;9.23;;
75542;SDS011;64129;53.508;10.476;2023-02-28T01:06:50;15.40;;;9.02;;
75542;SDS011;64129;53.508;10.476;2023-02-28T01:09:16;19.45;;;10.40;;
75542;SDS011;64129;53.508;10.476;2023-02-28T01:11:43;14.75;;;9.70;;
75542;SDS011;64129;53.508;10.476;2023-02-28T01:14:14;19.35;;;10.05;;
75542;SDS011;64129;53.508;10.476;2023-02-28T01:16:44;16.98;;;9.60;;
75542;SDS011;64129;53.508;10.476;2023-02-28T01:19:11;19.98;;;10.32;;
75542;SDS011;64129;53.508;10.476;2023-02-28T01:21:37;15.55;;;9.35;;
75542;SDS011;64129;53.508;10.476;2023-02-28T01:24:04;13.75;;;9.23;;
75542;SDS011;64129;53.508;10.476;2023-02-28T01:26:31;15.45;;;9.15;;
75542;SDS011;64129;53.508;10.476;2023-02-28T01:28:58;17.27;;;8.85;;
75542;SDS011;64129;53.508;10.476;2023-02-28T01:31:25;16.45;;;8.60;;
75542;SDS011;64129;53.508;10.476;2023-02-28T01:33:52;15.00;;;8.63;;
75542;SDS011;64129;53.508;10.476;2023-02-28T01:36:20;12.15;;;8.13;;
75542;SDS011;64129;53.508;10.476;2023-02-28T01:38:48;13.55;;;7.90;;
75542;SDS011;64129;53.508;10.476;2023-02-28T01:41:22;12.38;;;8.20;;
75542;SDS011;64129;53.508;10.476;2023-02-28T01:43:55;16.17;;;8.90;;
75542;SDS011;64129;53.508;10.476;2023-02-28T01:46:26;11.65;;;7.72;;
75542;SDS011;64129;53.508;10.476;2023-02-28T01:48:54;12.38;;;7.60;;
75542;SDS011;64129;53.508;10.476;2023-02-28T01:51:28;10.05;;;7.07;;
75542;SDS011;64129;53.508;10.476;2023-02-28T01:54:02;14.07;;;7.47;;
75542;SDS011;64129;53.508;10.476;2023-02-28T01:56:41;10.30;;;7.53;;
75542;SDS011;64129;53.508;10.476;2023-02-28T01:59:13;15.57;;;8.00;;
75542;SDS011;64129;53.508;10.476;2023-02-28T02:04:13;8.85;;;6.43;;
75542;SDS011;64129;53.508;10.476;2023-02-28T02:06:42;11.23;;;6.85;;
75542;SDS011;64129;53.508;10.476;2023-02-28T02:09:11;13.30;;;7.28;;
75542;SDS011;64129;53.508;10.476;2023-02-28T02:11:39;10.60;;;7.10;;
75542;SDS011;64129;53.508;10.476;2023-02-28T02:17:00;11.52;;;6.63;;
75542;SDS011;64129;53.508;10.476;2023-02-28T02:25:41;9.25;;;5.75;;
75542;SDS011;64129;53.508;10.476;2023-02-28T02:36:46;8.13;;;5.32;;
75542;SDS011;64129;53.508;10.476;2023-02-28T02:39:24;7.90;;;5.03;;
75542;SDS011;64129;53.508;10.476;2023-02-28T02:41:58;8.13;;;5.03;;
75542;SDS011;64129;53.508;10.476;2023-02-28T02:44:30;7.88;;;5.13;;
75542;SDS011;64129;53.508;10.476;2023-02-28T02:47:09;8.27;;;4.82;;
75542;SDS011;64129;53.508;10.476;2023-02-28T02:49:40;10.02;;;5.95;;
75542;SDS011;64129;53.508;10.476;2023-02-28T02:52:13;7.00;;;4.43;;
75542;SDS011;64129;53.508;10.476;2023-02-28T02:54:44;7.50;;;4.10;;
75542;SDS011;64129;53.508;10.476;2023-02-28T03:00:17;8.13;;;4.47;;
75542;SDS011;64129;53.508;10.476;2023-02-28T03:02:49;7.35;;;4.32;;
75542;SDS011;64129;53.508;10.476;2023-02-28T03:05:28;7.15;;;4.38;;
75542;SDS011;64129;53.508;10.476;2023-02-28T03:08:02;6.80;;;4.05;;
75542;SDS011;64129;53.508;10.476;2023-02-28T03:10:36;7.05;;;4.38;;
75542;SDS011;64129;53.508;10.476;2023-02-28T03:19:01;9.18;;;4.57;;
75542;SDS011;64129;53.508;10.476;2023-02-28T03:24:28;7.03;;;4.03;;
75542;SDS011;64129;53.508;10.476;2023-02-28T03:27:04;5.63;;;4.10;;
75542;SDS011;64129;53.508;10.476;2023-02-28T03:29:37;7.60;;;4.38;;
75542;SDS011;64129;53.508;10.476;2023-02-28T03:32:24;7.18;;;4.47;;
75542;SDS011;64129;53.508;10.476;2023-02-28T03:34:59;7.68;;;4.30;;
75542;SDS011;64129;53.508;10.476;2023-02-28T03:37:32;8.50;;;5.20;;
75542;SDS011;64129;53.508;10.476;2023-02-28T03:40:04;7.95;;;4.97;;
75542;SDS011;64129;53.508;10.476;2023-02-28T03:42:35;6.25;;;4.25;;
75542;SDS011;64129;53.508;10.476;2023-02-28T03:45:04;8.38;;;5.07;;
75542;SDS011;64129;53.508;10.476;2023-02-28T03:47:38;10.90;;;4.90;;
75542;SDS011;64129;53.508;10.476;2023-02-28T03:50:07;9.00;;;4.95;;
75542;SDS011;64129;53.508;10.476;2023-02-28T03:52:38;8.85;;;4.60;;
75542;SDS011;64129;53.508;10.476;2023-02-28T03:55:13;8.80;;;4.95;;
75542;SDS011;64129;53.508;10.476;2023-02-28T04:00:19;7.60;;;4.22;;
75542;SDS011;64129;53.508;10.476;2023-02-28T04:02:52;6.20;;;4.43;;
75542;SDS011;64129;53.508;10.476;2023-02-28T04:05:20;7.90;;;4.63;;
75542;SDS011;64129;53.508;10.476;2023-02-28T04:07:47;9.23;;;4.65;;
75542;SDS011;64129;53.508;10.476;2023-02-28T04:10:15;9.65;;;5.05;;
75542;SDS011;64129;53.508;10.476;2023-02-28T04:12:42;9.70;;;5.45;;
75542;SDS011;64129;53.508;10.476;2023-02-28T04:15:09;10.93;;;5.20;;
75542;SDS011;64129;53.508;10.476;2023-02-28T04:17:36;9.13;;;5.57;;
75542;SDS011;64129;53.508;10.476;2023-02-28T04:20:03;13.77;;;5.63;;
75542;SDS011;64129;53.508;10.476;2023-02-28T04:22:35;9.95;;;5.25;;
75542;SDS011;64129;53.508;10.476;2023-02-28T04:25:03;7.68;;;5.25;;
75542;SDS011;64129;53.508;10.476;2023-02-28T04:27:31;6.75;;;4.43;;
75542;SDS011;64129;53.508;10.476;2023-02-28T04:29:58;9.57;;;5.40;;
75542;SDS011;64129;53.508;10.476;2023-02-28T04:32:25;8.85;;;5.47;;
75542;SDS011;64129;53.508;10.476;2023-02-28T04:34:51;9.23;;;5.28;;
75542;SDS011;64129;53.508;10.476;2023-02-28T04:37:18;9.35;;;5.28;;
75542;SDS011;64129;53.508;10.476;2023-02-28T04:39:44;9.60;;;4.72;;
75542;SDS011;64129;53.508;10.476;2023-02-28T04:42:11;6.20;;;4.18;;
75542;SDS011;64129;53.508;10.476;2023-02-28T04:44:38;8.60;;;4.30;;
75542;SDS011;64129;53.508;10.476;2023-02-28T04:47:05;6.82;;;4.22;;
75542;SDS011;64129;53.508;10.476;2023-02-28T04:49:31;6.72;;;4.70;;
75542;SDS011;64129;53.508;10.476;2023-02-28T04:51:58;8.18;;;4.53;;
75542;SDS011;64129;53.508;10.476;2023-02-28T04:54:24;9.18;;;4.50;;
75542;SDS011;64129;53.508;10.476;2023-02-28T04:56:51;6.43;;;3.60;;
75542;SDS011;64129;53.508;10.476;2023-02-28T04:59:17;7.00;;;4.25;;
75542;SDS011;64129;53.508;10.476;2023-02-28T05:01:47;8.20;;;4.18;;
75542;SDS011;64129;53.508;10.476;2023-02-28T05:04:15;9.00;;;4.30;;
75542;SDS011;64129;53.508;10.476;2023-02-28T05:06:42;8.93;;;4.57;;
75542;SDS011;64129;53.508;10.476;2023-02-28T05:09:09;7.72;;;4.07;;
75542;SDS011;64129;53.508;10.476;2023-02-28T05:11:37;7.60;;;4.20;;
75542;SDS011;64129;53.508;10.476;2023-02-28T05:14:06;8.88;;;4.25;;
75542;SDS011;64129;53.508;10.476;2023-02-28T05:16:37;9.23;;;4.47;;
75542;SDS011;64129;53.508;10.476;2023-02-28T05:19:03;6.72;;;4.32;;
75542;SDS011;64129;53.508;10.476;2023-02-28T05:21:31;10.50;;;4.32;;
75542;SDS011;64129;53.508;10.476;2023-02-28T05:24:01;6.70;;;4.05;;
75542;SDS011;64129;53.508;10.476;2023-02-28T05:26:29;7.00;;;3.80;;
75542;SDS011;64129;53.508;10.476;2023-02-28T05:28:57;7.07;;;4.18;;
75542;SDS011;64129;53.508;10.476;2023-02-28T05:31:23;8.30;;;4.13;;
75542;SDS011;64129;53.508;10.476;2023-02-28T05:33:50;8.43;;;4.18;;
75542;SDS011;64129;53.508;10.476;2023-02-28T05:36:17;8.38;;;4.43;;
75542;SDS011;64129;53.508;10.476;2023-02-28T05:38:46;7.35;;;4.13;;
75542;SDS011;64129;53.508;10.476;2023-02-28T05:41:14;6.95;;;4.43;;
75542;SDS011;64129;53.508;10.476;2023-02-28T05:43:41;6.38;;;3.88;;
75542;SDS011;64129;53.508;10.476;2023-02-28T05:46:08;7.25;;;4.18;;
75542;SDS011;64129;53.508;10.476;2023-02-28T05:48:37;6.10;;;4.05;;
75542;SDS011;64129;53.508;10.476;2023-02-28T05:51:05;7.13;;;4.10;;
75542;SDS011;64129;53.508;10.476;2023-02-28T05:53:33;6.00;;;4.20;;
75542;SDS011;64129;53.508;10.476;2023-02-28T05:56:00;7.35;;;4.07;;
75542;SDS011;64129;53.508;10.476;2023-02-28T05:58:26;7.38;;;4.00;;
75542;SDS011;64129;53.508;10.476;2023-02-28T06:00:57;8.20;;;4.18;;
75542;SDS011;64129;53.508;10.476;2023-02-28T06:03:27;9.48;;;4.20;;
75542;SDS011;64129;53.508;10.476;2023-02-28T06:05:54;9.85;;;4.10;;
75542;SDS011;64129;53.508;10.476;2023-02-28T06:08:20;8.73;;;4.70;;
75542;SDS011;64129;53.508;10.476;2023-02-28T06:10:47;8.02;;;4.60;;
75542;SDS011;64129;53.508;10.476;2023-02-28T06:13:13;6.07;;;3.85;;
75542;SDS011;64129;53.508;10.476;2023-02-28T06:15:40;9.15;;;4.20;;
75542;SDS011;64129;53.508;10.476;2023-02-28T06:18:07;8.60;;;4.28;;
75542;SDS011;64129;53.508;10.476;2023-02-28T06:20:33;8.82;;;4.70;;
75542;SDS011;64129;53.508;10.476;2023-02-28T06:23:02;9.10;;;4.88;;
75542;SDS011;64129;53.508;10.476;2023-02-28T06:25:28;9.18;;;4.53;;
75542;SDS011;64129;53.508;10.476;2023-02-28T06:27:55;8.57;;;4.85;;
75542;SDS011;64129;53.508;10.476;2023-02-28T06:30:22;8.05;;;5.05;;
75542;SDS011;64129;53.508;10.476;2023-02-28T06:32:53;8.00;;;4.38;;
75542;SDS011;64129;53.508;10.476;2023-02-28T06:35:20;6.95;;;4.82;;
75542;SDS011;64129;53.508;10.476;2023-02-28T06:37:47;8.85;;;4.90;;
75542;SDS011;64129;53.508;10.476;2023-02-28T06:40:14;9.35;;;4.68;;
75542;SDS011;64129;53.508;10.476;2023-02-28T06:42:41;10.40;;;4.63;;
75542;SDS011;64129;53.508;10.476;2023-02-28T06:45:08;8.10;;;4.88;;
75542;SDS011;64129;53.508;10.476;2023-02-28T06:47:39;8.73;;;5.38;;
75542;SDS011;64129;53.508;10.476;2023-02-28T06:50:07;9.80;;;5.63;;
75542;SDS011;64129;53.508;10.476;2023-02-28T06:52:37;12.57;;;6.38;;
75542;SDS011;64129;53.508;10.476;2023-02-28T06:55:05;9.95;;;5.82;;
75542;SDS011;64129;53.508;10.476;2023-02-28T06:57:33;8.95;;;5.78;;
75542;SDS011;64129;53.508;10.476;2023-02-28T07:00:02;11.57;;;6.22;;
75542;SDS011;64129;53.508;10.476;2023-02-28T07:02:34;13.38;;;6.53;;
75542;SDS011;64129;53.508;10.476;2023-02-28T07:05:02;12.90;;;7.00;;
75542;SDS011;64129;53.508;10.476;2023-02-28T07:07:28;8.50;;;5.32;;
75542;SDS011;64129;53.508;10.476;2023-02-28T07:09:55;9.68;;;5.15;;
75542;SDS011;64129;53.508;10.476;2023-02-28T07:12:22;8.60;;;5.05;;
75542;SDS011;64129;53.508;10.476;2023-02-28T07:14:49;9.65;;;5.70;;
75542;SDS011;64129;53.508;10.476;2023-02-28T07:17:15;7.57;;;5.40;;
75542;SDS011;64129;53.508;10.476;2023-02-28T07:19:42;10.15;;;5.05;;
75542;SDS011;64129;53.508;10.476;2023-02-28T07:22:08;10.48;;;5.72;;
75542;SDS011;64129;53.508;10.476;2023-02-28T07:24:35;9.27;;;5.45;;
75542;SDS011;64129;53.508;10.476;2023-02-28T07:27:01;8.45;;;5.30;;
75542;SDS011;64129;53.508;10.476;2023-02-28T07:29:28;8.85;;;5.25;;
75542;SDS011;64129;53.508;10.476;2023-02-28T07:31:55;10.80;;;6.32;;
75542;SDS011;64129;53.508;10.476;2023-02-28T07:34:22;11.07;;;5.97;;
75542;SDS011;64129;53.508;10.476;2023-02-28T07:36:49;9.65;;;6.75;;
75542;SDS011;64129;53.508;10.476;2023-02-28T07:39:20;11.05;;;5.70;;
75542;SDS011;64129;53.508;10.476;2023-02-28T07:41:47;13.45;;;8.88;;
75542;SDS011;64129;53.508;10.476;2023-02-28T07:44:14;12.55;;;7.90;;
75542;SDS011;64129;53.508;10.476;2023-02-28T07:46:40;17.08;;;8.70;;
75542;SDS011;64129;53.508;10.476;2023-02-28T07:49:07;14.70;;;8.85;;
75542;SDS011;64129;53.508;10.476;2023-02-28T07:51:33;15.10;;;9.52;;
75542;SDS011;64129;53.508;10.476;2023-02-28T07:54:00;19.48;;;9.73;;
75542;SDS011;64129;53.508;10.476;2023-02-28T07:56:26;15.27;;;8.40;;
75542;SDS011;64129;53.508;10.476;2023-02-28T07:58:53;18.05;;;10.43;;
75542;SDS011;64129;53.508;10.476;2023-02-28T08:01:21;14.10;;;9.10;;
75542;SDS011;64129;53.508;10.476;2023-02-28T08:03:48;15.98;;;8.45;;
75542;SDS011;64129;53.508;10.476;2023-02-28T08:06:16;9.95;;;5.80;;
75542;SDS011;64129;53.508;10.476;2023-02-28T08:08:47;11.43;;;6.78;;
75542;SDS011;64129;53.508;10.476;2023-02-28T08:11:14;11.25;;;7.10;;
75542;SDS011;64129;53.508;10.476;2023-02-28T08:13:42;8.77;;;5.43;;
75542;SDS011;64129;53.508;10.476;2023-02-28T08:16:10;8.05;;;4.88;;
75542;SDS011;64129;53.508;10.476;2023-02-28T08:18:40;10.10;;;4.78;;
75542;SDS011;64129;53.508;10.476;2023-02-28T08:21:07;10.88;;;5.35;;
75542;SDS011;64129;53.508;10.476;2023-02-28T08:23:35;6.50;;;4.10;;
75542;SDS011;64129;53.508;10.476;2023-02-28T08:26:02;5.03;;;3.83;;
75542;SDS011;64129;53.508;10.476;2023-02-28T08:28:29;6.30;;;3.65;;
75542;SDS011;64129;53.508;10.476;2023-02-28T08:30:56;7.43;;;4.85;;
75542;SDS011;64129;53.508;10.476;2023-02-28T08:33:23;5.95;;;3.65;;
75542;SDS011;64129;53.508;10.476;2023-02-28T08:35:54;3.85;;;3.22;;
75542;SDS011;64129;53.508;10.476;2023-02-28T08:38:22;4.22;;;3.45;;
75542;SDS011;64129;53.508;10.476;2023-02-28T08:40:49;8.13;;;4.05;;
75542;SDS011;64129;53.508;10.476;2023-02-28T08:43:16;6.80;;;3.70;;
75542;SDS011;64129;53.508;10.476;2023-02-28T08:45:42;5.35;;;2.70;;
75542;SDS011;64129;53.508;10.476;2023-02-28T08:48:09;4.75;;;2.85;;
75542;SDS011;64129;53.508;10.476;2023-02-28T08:50:36;6.13;;;3.22;;
75542;SDS011;64129;53.508;10.476;2023-02-28T08:53:02;3.70;;;2.40;;
75542;SDS011;64129;53.508;10.476;2023-02-28T08:55:29;4.88;;;2.88;;
75542;SDS011;64129;53.508;10.476;2023-02-28T08:57:55;4.38;;;2.83;;
75542;SDS011;64129;53.508;10.476;2023-02-28T09:00:22;2.20;;;1.73;;
75542;SDS011;64129;53.508;10.476;2023-02-28T09:02:49;3.05;;;1.33;;
75542;SDS011;64129;53.508;10.476;2023-02-28T09:05:15;2.22;;;1.33;;
75542;SDS011;64129;53.508;10.476;2023-02-28T09:07:42;3.17;;;1.88;;
75542;SDS011;64129;53.508;10.476;2023-02-28T09:10:09;2.78;;;1.20;;
75542;SDS011;64129;53.508;10.476;2023-02-28T09:12:36;2.15;;;1.40;;
75542;SDS011;64129;53.508;10.476;2023-02-28T09:15:03;2.58;;;1.45;;
75542;SDS011;64129;53.508;10.476;2023-02-28T09:17:29;3.28;;;1.40;;
75542;SDS011;64129;53.508;10.476;2023-02-28T09:19:56;1.92;;;1.15;;
75542;SDS011;64129;53.508;10.476;2023-02-28T09:22:23;2.88;;;1.60;;
75542;SDS011;64129;53.508;10.476;2023-02-28T09:24:50;2.58;;;1.40;;
75542;SDS011;64129;53.508;10.476;2023-02-28T09:27:17;1.60;;;0.98;;
75542;SDS011;64129;53.508;10.476;2023-02-28T09:29:43;1.65;;;1.23;;
75542;SDS011;64129;53.508;10.476;2023-02-28T09:32:10;3.92;;;1.55;;
75542;SDS011;64129;53.508;10.476;2023-02-28T09:34:36;2.72;;;1.38;;
75542;SDS011;64129;53.508;10.476;2023-02-28T09:37:04;2.55;;;1.45;;
75542;SDS011;64129;53.508;10.476;2023-02-28T09:39:30;2.08;;;1.30;;
75542;SDS011;64129;53.508;10.476;2023-02-28T09:41:57;2.33;;;1.25;;
75542;SDS011;64129;53.508;10.476;2023-02-28T09:44:37;1.95;;;1.10;;
75542;SDS011;64129;53.508;10.476;2023-02-28T09:50:00;2.40;;;1.23;;
75542;SDS011;64129;53.508;10.476;2023-02-28T09:52:37;1.90;;;0.77;;
75542;SDS011;64129;53.508;10.476;2023-02-28T09:57:48;1.30;;;1.10;;
75542;SDS011;64129;53.508;10.476;2023-02-28T10:11:28;0.90;;;0.60;;
75542;SDS011;64129;53.508;10.476;2023-02-28T10:14:05;0.55;;;0.45;;
75542;SDS011;64129;53.508;10.476;2023-02-28T10:16:40;1.23;;;0.52;;
75542;SDS011;64129;53.508;10.476;2023-02-28T10:22:19;0.60;;;0.60;;
75542;SDS011;64129;53.508;10.476;2023-02-28T10:24:50;0.30;;;0.30;;
75542;SDS011;64129;53.508;10.476;2023-02-28T10:27:23;1.58;;;0.60;;
75542;SDS011;64129;53.508;10.476;2023-02-28T10:29:52;0.77;;;0.60;;
75542;SDS011;64129;53.508;10.476;2023-02-28T10:32:22;2.85;;;1.10;;
75542;SDS011;64129;53.508;10.476;2023-02-28T10:35:01;1.60;;;1.20;;
75542;SDS011;64129;53.508;10.476;2023-02-28T10:37:44;3.53;;;1.00;;
75542;SDS011;64129;53.508;10.476;2023-02-28T10:43:01;2.60;;;1.10;;
75542;SDS011;64129;53.508;10.476;2023-02-28T10:45:31;1.58;;;0.90;;
75542;SDS011;64129;53.508;10.476;2023-02-28T10:48:04;1.58;;;0.77;;
75542;SDS011;64129;53.508;10.476;2023-02-28T11:03:56;2.72;;;0.82;;
75542;SDS011;64129;53.508;10.476;2023-02-28T11:06:28;4.35;;;0.90;;
75542;SDS011;64129;53.508;10.476;2023-02-28T11:08:58;0.77;;;0.63;;
75542;SDS011;64129;53.508;10.476;2023-02-28T11:11:28;0.73;;;0.60;;
75542;SDS011;64129;53.508;10.476;2023-02-28T11:14:02;1.67;;;1.10;;
75542;SDS011;64129;53.508;10.476;2023-02-28T11:16:32;1.20;;;0.80;;
75542;SDS011;64129;53.508;10.476;2023-02-28T11:19:01;2.28;;;0.63;;
75542;SDS011;64129;53.508;10.476;2023-02-28T11:21:35;2.17;;;1.50;;
75542;SDS011;64129;53.508;10.476;2023-02-28T11:24:15;1.48;;;0.95;;
75542;SDS011;64129;53.508;10.476;2023-02-28T11:26:49;1.75;;;1.23;;
75542;SDS011;64129;53.508;10.476;2023-02-28T11:29:27;1.52;;;0.75;;
75542;SDS011;64129;53.508;10.476;2023-02-28T11:32:03;3.38;;;1.20;;
75542;SDS011;64129;53.508;10.476;2023-02-28T11:34:32;2.30;;;1.00;;
75542;SDS011;64129;53.508;10.476;2023-02-28T11:36:59;2.72;;;1.10;;
75542;SDS011;64129;53.508;10.476;2023-02-28T11:39:27;1.33;;;0.70;;
75542;SDS011;64129;53.508;10.476;2023-02-28T11:55:11;2.53;;;0.98;;
75542;SDS011;64129;53.508;10.476;2023-02-28T12:06:40;1.42;;;0.82;;
75542;SDS011;64129;53.508;10.476;2023-02-28T12:09:17;0.82;;;0.77;;
75542;SDS011;64129;53.508;10.476;2023-02-28T12:18:10;0.82;;;0.77;;
75542;SDS011;64129;53.508;10.476;2023-02-28T12:21:04;1.98;;;0.98;;
75542;SDS011;64129;53.508;10.476;2023-02-28T12:23:44;1.70;;;0.93;;
75542;SDS011;64129;53.508;10.476;2023-02-28T12:31:38;2.15;;;1.20;;
75542;SDS011;64129;53.508;10.476;2023-02-28T12:34:12;3.92;;;1.30;;
75542;SDS011;64129;53.508;10.476;2023-02-28T12:36:42;1.52;;;1.02;;
75542;SDS011;64129;53.508;10.476;2023-02-28T12:39:13;1.75;;;1.05;;
75542;SDS011;64129;53.508;10.476;2023-02-28T12:41:51;2.30;;;1.30;;
75542;SDS011;64129;53.508;10.476;2023-02-28T12:44:44;1.55;;;1.00;;
75542;SDS011;64129;53.508;10.476;2023-02-28T12:47:16;2.47;;;0.90;;
75542;SDS011;64129;53.508;10.476;2023-02-28T12:49:45;1.17;;;1.08;;
75542;SDS011;64129;53.508;10.476;2023-02-28T12:52:16;1.60;;;1.08;;
75542;SDS011;64129;53.508;10.476;2023-02-28T12:54:52;2.60;;;1.08;;
75542;SDS011;64129;53.508;10.476;2023-02-28T13:00:10;2.03;;;1.00;;
75542;SDS011;64129;53.508;10.476;2023-02-28T13:10:44;1.25;;;0.82;;
75542;SDS011;64129;53.508;10.476;2023-02-28T13:13:18;2.25;;;1.15;;
75542;SDS011;64129;53.508;10.476;2023-02-28T13:16:08;1.23;;;0.93;;
75542;SDS011;64129;53.508;10.476;2023-02-28T13:18:38;1.98;;;1.05;;
75542;SDS011;64129;53.508;10.476;2023-02-28T13:21:09;2.05;;;1.25;;
75542;SDS011;64129;53.508;10.476;2023-02-28T13:35:32;1.23;;;0.95;;
75542;SDS011;64129;53.508;10.476;2023-02-28T13:39:56;2.28;;;0.80;;
75542;SDS011;64129;53.508;10.476;2023-02-28T13:42:35;1.17;;;0.85;;
75542;SDS011;64129;53.508;10.476;2023-02-28T13:47:39;1.98;;;0.80;;
75542;SDS011;64129;53.508;10.476;2023-02-28T13:53:14;1.40;;;1.15;;
75542;SDS011;64129;53.508;10.476;2023-02-28T14:04:03;1.20;;;0.80;;
75542;SDS011;64129;53.508;10.476;2023-02-28T14:06:35;1.65;;;0.80;;
75542;SDS011;64129;53.508;10.476;2023-02-28T14:11:38;1.10;;;0.85;;
75542;SDS011;64129;53.508;10.476;2023-02-28T14:14:08;1.80;;;0.77;;
75542;SDS011;64129;53.508;10.476;2023-02-28T14:19:16;1.10;;;0.90;;
75542;SDS011;64129;53.508;10.476;2023-02-28T14:38:59;1.75;;;0.90;;
75542;SDS011;64129;53.508;10.476;2023-02-28T14:41:34;1.65;;;0.85;;
75542;SDS011;64129;53.508;10.476;2023-02-28T14:46:40;3.75;;;1.10;;
75542;SDS011;64129;53.508;10.476;2023-02-28T14:49:51;2.20;;;0.80;;
75542;SDS011;64129;53.508;10.476;2023-02-28T14:54:41;1.40;;;0.90;;
75542;SDS011;64129;53.508;10.476;2023-02-28T15:00:30;1.95;;;0.90;;
75542;SDS011;64129;53.508;10.476;2023-02-28T15:02:59;1.35;;;0.80;;
75542;SDS011;64129;53.508;10.476;2023-02-28T15:10:49;2.47;;;0.90;;
75542;SDS011;64129;53.508;10.476;2023-02-28T15:13:19;1.48;;;0.80;;
75542;SDS011;64129;53.508;10.476;2023-02-28T15:19:11;1.48;;;0.85;;
75542;SDS011;64129;53.508;10.476;2023-02-28T15:26:38;2.20;;;1.00;;
75542;SDS011;64129;53.508;10.476;2023-02-28T15:29:08;2.38;;;1.02;;
75542;SDS011;64129;53.508;10.476;2023-02-28T15:31:49;1.20;;;0.80;;
75542;SDS011;64129;53.508;10.476;2023-02-28T15:34:28;3.58;;;1.00;;
75542;SDS011;64129;53.508;10.476;2023-02-28T15:39:54;1.00;;;0.90;;
75542;SDS011;64129;53.508;10.476;2023-02-28T15:42:23;2.25;;;0.90;;
75542;SDS011;64129;53.508;10.476;2023-02-28T15:44:54;2.50;;;1.13;;
75542;SDS011;64129;53.508;10.476;2023-02-28T15:47:22;1.00;;;0.80;;
75542;SDS011;64129;53.508;10.476;2023-02-28T15:49:54;1.15;;;0.80;;
75542;SDS011;64129;53.508;10.476;2023-02-28T15:52:28;1.52;;;0.90;;
75542;SDS011;64129;53.508;10.476;2023-02-28T15:55:07;1.40;;;1.10;;
75542;SDS011;64129;53.508;10.476;2023-02-28T15:57:43;1.98;;;1.10;;
75542;SDS011;64129;53.508;10.476;2023-02-28T16:00:13;2.22;;;1.45;;
75542;SDS011;64129;53.508;10.476;2023-02-28T16:02:42;2.22;;;1.40;;
75542;SDS011;64129;53.508;10.476;2023-02-28T16:07:36;2.40;;;1.33;;
75542;SDS011;64129;53.508;10.476;2023-02-28T16:10:04;1.35;;;1.23;;
75542;SDS011;64129;53.508;10.476;2023-02-28T16:12:32;1.38;;;1.10;;
75542;SDS011;64129;53.508;10.476;2023-02-28T16:15:02;2.90;;;1.40;;
75542;SDS011;64129;53.508;10.476;2023-02-28T16:17:33;2.85;;;1.60;;
75542;SDS011;64129;53.508;10.476;2023-02-28T16:20:05;2.65;;;1.52;;
75542;SDS011;64129;53.508;10.476;2023-02-28T16:22:38;2.60;;;1.40;;
75542;SDS011;64129;53.508;10.476;2023-02-28T16:25:05;1.20;;;1.10;;
75542;SDS011;64129;53.508;10.476;2023-02-28T16:27:35;2.55;;;1.35;;
75542;SDS011;64129;53.508;10.476;2023-02-28T16:30:04;1.35;;;1.20;;
75542;SDS011;64129;53.508;10.476;2023-02-28T16:32:33;1.27;;;1.00;;
75542;SDS011;64129;53.508;10.476;2023-02-28T16:35:02;3.08;;;1.40;;
75542;SDS011;64129;53.508;10.476;2023-02-28T16:37:29;2.13;;;1.02;;
75542;SDS011;64129;53.508;10.476;2023-02-28T16:39:56;3.55;;;1.33;;
75542;SDS011;64129;53.508;10.476;2023-02-28T16:42:26;1.48;;;0.98;;
75542;SDS011;64129;53.508;10.476;2023-02-28T16:44:54;2.80;;;1.25;;
75542;SDS011;64129;53.508;10.476;2023-02-28T16:47:22;3.22;;;1.20;;
75542;SDS011;64129;53.508;10.476;2023-02-28T16:49:48;1.73;;;1.05;;
75542;SDS011;64129;53.508;10.476;2023-02-28T16:52:15;2.03;;;1.40;;
75542;SDS011;64129;53.508;10.476;2023-02-28T16:54:41;3.20;;;1.42;;
75542;SDS011;64129;53.508;10.476;2023-02-28T16:57:17;2.85;;;1.25;;
75542;SDS011;64129;53.508;10.476;2023-02-28T16:59:48;1.50;;;1.00;;
75542;SDS011;64129;53.508;10.476;2023-02-28T17:02:17;2.20;;;1.40;;
75542;SDS011;64129;53.508;10.476;2023-02-28T17:04:45;4.30;;;1.70;;
75542;SDS011;64129;53.508;10.476;2023-02-28T17:07:12;2.80;;;1.48;;
75542;SDS011;64129;53.508;10.476;2023-02-28T17:09:42;3.45;;;1.83;;
75542;SDS011;64129;53.508;10.476;2023-02-28T17:12:11;3.65;;;1.90;;
75542;SDS011;64129;53.508;10.476;2023-02-28T17:14:38;5.57;;;2.38;;
75542;SDS011;64129;53.508;10.476;2023-02-28T17:17:05;3.97;;;2.60;;
75542;SDS011;64129;53.508;10.476;2023-02-28T17:19:32;5.55;;;3.30;;
75542;SDS011;64129;53.508;10.476;2023-02-28T17:22:00;6.55;;;3.40;;
75542;SDS011;64129;53.508;10.476;2023-02-28T17:24:26;7.00;;;3.47;;
75542;SDS011;64129;53.508;10.476;2023-02-28T17:26:56;10.43;;;3.92;;
75542;SDS011;64129;53.508;10.476;2023-02-28T17:29:23;5.97;;;3.83;;
75542;SDS011;64129;53.508;10.476;2023-02-28T17:31:50;6.35;;;4.55;;
75542;SDS011;64129;53.508;10.476;2023-02-28T17:34:17;6.00;;;4.32;;
75542;SDS011;64129;53.508;10.476;2023-02-28T17:36:47;8.93;;;4.82;;
75542;SDS011;64129;53.508;10.476;2023-02-28T17:39:15;7.97;;;5.50;;
75542;SDS011;64129;53.508;10.476;2023-02-28T17:41:50;5.15;;;4.40;;
75542;SDS011;64129;53.508;10.476;2023-02-28T17:44:18;5.78;;;3.40;;
75542;SDS011;64129;53.508;10.476;2023-02-28T17:46:45;6.85;;;4.47;;
75542;SDS011;64129;53.508;10.476;2023-02-28T17:49:13;7.40;;;5.05;;
75542;SDS011;64129;53.508;10.476;2023-02-28T17:51:39;7.15;;;4.93;;
75542;SDS011;64129;53.508;10.476;2023-02-28T17:54:06;12.45;;;5.97;;
75542;SDS011;64129;53.508;10.476;2023-02-28T17:56:32;13.63;;;7.70;;